createdAt,value
2023-02-09T00:01:42.223Z,3.3
2023-02-09T00:07:08.604Z,3.3
2023-02-09T00:12:19.025Z,5.0
2023-02-09T00:18:01.420Z,4.2
2023-02-09T00:25:40.005Z,3.0
2023-02-09T00:27:58.329Z,2.2
2023-02-09T00:33:20.665Z,4.2
2023-02-09T00:37:47.141Z,3.7
2023-02-09T00:42:53.532Z,3.8
2023-02-09T00:47:39.902Z,3.7
2023-02-09T00:53:06.292Z,5.0
2023-02-09T00:59:04.794Z,4.2
2023-02-09T01:02:59.064Z,3.6
2023-02-09T01:08:29.460Z,5.7
2023-02-09T01:13:31.845Z,4.3
2023-02-09T01:18:18.208Z,4.1
2023-02-09T01:23:24.578Z,4.2
2023-02-09T01:28:31.007Z,4.4
2023-02-09T01:33:37.367Z,4.5
2023-02-09T01:39:03.805Z,5.7
2023-02-09T01:43:50.107Z,3.2
2023-02-09T01:48:56.551Z,4.5
2023-02-09T01:54:02.911Z,6.8
2023-02-09T01:59:33.417Z,4.6
2023-02-09T02:04:16.947Z,3.9
2023-02-09T02:09:23.297Z,2.6
2023-02-09T02:14:29.739Z,4.4
2023-02-09T02:19:36.172Z,4.0
2023-02-09T02:24:42.509Z,2.6
2023-02-09T02:30:12.944Z,4.5
2023-02-09T02:35:19.353Z,4.7
2023-02-09T02:40:02.799Z,3.8
2023-02-09T02:45:29.249Z,5.2
2023-02-09T02:51:15.706Z,3.7
2023-02-09T02:56:06.061Z,4.4
2023-02-09T03:00:28.362Z,3.7
2023-02-09T03:05:58.828Z,4.8
2023-02-09T03:10:41.200Z,5.1
2023-02-09T03:16:51.229Z,4.3
2023-02-09T03:23:18.967Z,3.4
2023-02-09T03:26:05.128Z,4.1
2023-02-09T03:31:31.634Z,4.9
2023-02-09T03:36:17.952Z,4.3
2023-02-09T03:41:24.424Z,4.2
2023-02-09T03:46:30.882Z,3.6
2023-02-09T03:51:37.260Z,4.8
2023-02-09T03:56:43.814Z,3.5
2023-02-09T04:02:14.979Z,3.7
2023-02-09T04:07:17.236Z,3.3
2023-02-09T04:12:27.648Z,5.1
2023-02-09T04:17:09.986Z,3.8
2023-02-09T04:22:16.414Z,4.9
2023-02-09T04:27:26.518Z,4.2
2023-02-09T04:32:32.942Z,4.9
2023-02-09T04:37:39.335Z,4.9
2023-02-09T04:43:50.879Z,3.8
2023-02-09T04:48:58.248Z,3.2
2023-02-09T04:53:46.171Z,6.1
2023-02-09T04:59:28.650Z,4.3
2023-02-09T05:04:37.225Z,3.8
2023-02-09T05:11:07.763Z,2.7
2023-02-09T05:14:50.019Z,2.6
2023-02-09T05:20:40.451Z,3.8
2023-02-09T05:33:42.638Z,5.0
2023-02-09T05:53:05.703Z,5.3
2023-02-09T05:58:27.284Z,5.8
2023-02-09T06:11:42.002Z,6.7
2023-02-09T06:16:50.198Z,2.7
2023-02-09T06:22:11.710Z,7.7
2023-02-09T06:27:19.122Z,6.0
2023-02-09T06:32:27.675Z,3.8
2023-02-09T06:37:34.044Z,5.2
2023-02-09T06:43:40.573Z,4.7
2023-02-09T06:48:10.858Z,4.0
2023-02-09T06:52:54.756Z,4.9
2023-02-09T06:58:01.161Z,4.8
2023-02-09T07:04:07.875Z,3.9
2023-02-09T07:08:14.117Z,6.0
2023-02-09T07:13:20.484Z,6.1
2023-02-09T07:18:26.864Z,5.0
2023-02-09T07:23:33.457Z,5.9
2023-02-09T07:34:06.252Z,5.9
2023-02-09T07:37:00.572Z,6.4
2023-02-09T07:38:52.623Z,4.5
2023-02-09T07:43:58.996Z,7.8
2023-02-09T07:49:05.370Z,3.8
2023-02-09T07:54:11.780Z,5.3
2023-02-09T07:59:18.145Z,3.1
2023-02-09T08:04:48.590Z,5.8
2023-02-09T08:09:22.024Z,6.5
2023-02-09T08:14:38.395Z,4.8
2023-02-09T08:19:44.778Z,5.3
2023-02-09T08:25:11.224Z,7.3
2023-02-09T08:31:09.769Z,7.2
2023-02-09T08:35:03.907Z,5.0
2023-02-09T08:40:00.256Z,4.7
2023-02-09T08:45:17.770Z,4.1
2023-02-09T08:51:25.251Z,4.4
2023-02-09T08:56:08.676Z,7.0
2023-02-09T09:01:18.871Z,7.4
2023-02-09T09:06:25.130Z,3.5
2023-02-09T09:11:21.516Z,6.2
2023-02-09T09:16:38.035Z,6.3
2023-02-09T09:21:44.266Z,5.9
2023-02-09T09:27:10.700Z,7.7
2023-02-09T09:31:57.086Z,6.0
2023-02-09T09:37:03.550Z,6.6
2023-02-09T09:42:34.706Z,6.3
2023-02-09T09:47:21.170Z,7.6
2023-02-09T09:52:27.517Z,3.7
2023-02-09T09:57:53.911Z,5.1
2023-02-09T10:08:31.743Z,5.8
2023-02-09T10:13:39.098Z,3.6
2023-02-09T10:18:45.486Z,4.7
2023-02-09T10:23:51.876Z,6.8
2023-02-09T10:28:58.274Z,2.2
2023-02-09T10:34:06.204Z,5.5
2023-02-09T10:39:12.609Z,6.7
2023-02-09T10:44:19.083Z,5.9
2023-02-09T10:49:25.442Z,6.5
2023-02-09T10:54:21.821Z,8.1
2023-02-09T10:59:38.319Z,5.7
2023-02-09T11:04:44.808Z,5.7
2023-02-09T11:09:41.080Z,5.7
2023-02-09T11:14:57.457Z,6.7
2023-02-09T11:20:03.825Z,5.2
2023-02-09T11:25:10.251Z,6.9
2023-02-09T11:30:16.760Z,6.3
2023-02-09T11:35:13.100Z,6.7
2023-02-09T11:40:29.509Z,5.6
2023-02-09T11:45:35.882Z,6.5
2023-02-09T11:50:42.267Z,8.6
2023-02-09T11:55:48.642Z,8.3
2023-02-09T12:01:06.782Z,7.6
2023-02-09T12:06:25.487Z,7.9
2023-02-09T12:11:31.866Z,6.2
2023-02-09T12:16:14.240Z,5.8
2023-02-09T12:21:20.530Z,9.6
2023-02-09T12:26:28.484Z,3.7
2023-02-09T12:31:35.028Z,5.8
2023-02-09T12:36:41.273Z,14.3
2023-02-09T12:41:47.647Z,7.2
2023-02-09T12:46:54.187Z,5.6
2023-02-09T12:52:00.546Z,6.7
2023-02-09T12:56:56.895Z,6.3
2023-02-09T13:02:13.329Z,7.4
2023-02-09T13:07:21.373Z,7.0
2023-02-09T13:12:27.736Z,5.0
2023-02-09T13:17:34.167Z,7.0
2023-02-09T13:27:45.973Z,8.1
2023-02-09T13:32:53.499Z,7.2
2023-02-09T13:37:59.850Z,6.3
2023-02-09T13:43:06.215Z,7.5
2023-02-09T13:48:13.179Z,3.1
2023-02-09T13:53:18.969Z,6.3
2023-02-09T13:58:25.426Z,7.7
2023-02-09T14:03:31.933Z,5.5
2023-02-09T14:08:38.386Z,6.4
2023-02-09T14:13:44.760Z,7.1
2023-02-09T14:18:51.192Z,6.2
2023-02-09T14:23:57.529Z,8.7
2023-02-09T14:29:03.937Z,7.0
2023-02-09T14:34:12.457Z,6.6
2023-02-09T14:39:17.999Z,6.9
2023-02-09T14:44:27.959Z,6.5
2023-02-09T14:49:34.350Z,7.7
2023-02-09T14:54:40.707Z,7.0
2023-02-09T14:59:37.058Z,6.5
2023-02-09T15:04:53.642Z,6.4
2023-02-09T15:10:00.136Z,7.1
2023-02-09T15:15:06.464Z,7.5
2023-02-09T15:20:12.856Z,4.5
2023-02-09T15:25:19.807Z,5.9
2023-02-09T15:30:26.169Z,8.3
2023-02-09T15:35:33.099Z,7.7
2023-02-09T15:40:39.605Z,5.5
2023-02-09T15:45:46.080Z,7.2
2023-02-09T15:50:52.542Z,7.7
2023-02-09T15:55:58.954Z,8.8
2023-02-09T16:01:29.306Z,6.2
2023-02-09T16:06:11.621Z,2.9
2023-02-09T16:11:18.054Z,6.4
2023-02-09T16:16:25.660Z,9.0
2023-02-09T16:21:21.994Z,9.0
2023-02-09T16:26:38.353Z,10.3
2023-02-09T16:32:04.775Z,15.1
2023-02-09T16:36:51.125Z,6.8
2023-02-09T16:41:57.592Z,6.8
2023-02-09T16:47:04.067Z,6.8
2023-02-09T16:52:10.396Z,8.1
2023-02-09T16:57:20.335Z,8.1
2023-02-09T17:02:26.734Z,8.2
2023-02-09T17:07:39.812Z,7.3
2023-02-09T17:12:39.591Z,7.3
2023-02-09T17:17:46.076Z,7.3
2023-02-09T17:22:56.500Z,5.1
2023-02-09T17:27:58.939Z,5.1
2023-02-09T17:33:29.268Z,6.4
2023-02-09T17:38:11.620Z,6.4
2023-02-09T17:43:17.960Z,9.2
2023-02-09T17:48:24.431Z,6.1
2023-02-09T17:53:54.891Z,8.5
2023-02-09T17:58:37.209Z,7.9
2023-02-09T18:04:03.848Z,7.2
2023-02-09T18:08:50.205Z,8.4
2023-02-09T18:13:56.776Z,5.8
2023-02-09T18:19:03.124Z,5.3
2023-02-09T18:24:10.540Z,9.4
2023-02-09T18:29:37.012Z,7.1
2023-02-09T18:34:23.323Z,13.1
2023-02-09T18:39:53.783Z,8.7
2023-02-09T18:44:26.046Z,9.0
2023-02-09T18:49:42.672Z,6.7
2023-02-09T18:54:49.237Z,10.0
2023-02-09T19:00:19.768Z,9.6
2023-02-09T19:05:02.132Z,9.9
2023-02-09T19:10:08.500Z,9.9
2023-02-09T19:15:14.880Z,10.3
2023-02-09T19:20:35.358Z,11.4
2023-02-09T19:25:27.700Z,12.0
2023-02-09T19:30:56.277Z,11.8
2023-02-09T19:36:06.677Z,13.6
2023-02-09T19:41:10.928Z,12.4
2023-02-09T19:45:55.379Z,11.8
2023-02-09T19:51:01.760Z,10.8
2023-02-09T19:56:28.266Z,12.1
2023-02-09T20:02:14.108Z,12.9
2023-02-09T20:06:21.388Z,10.8
2023-02-09T20:16:34.231Z,12.4
2023-02-09T20:17:28.254Z,13.1
2023-02-09T20:22:52.798Z,10.8
2023-02-09T20:26:47.034Z,15.2
2023-02-09T20:32:17.496Z,12.8
2023-02-09T20:36:59.825Z,9.2
2023-02-09T20:43:18.330Z,12.8
2023-02-09T20:48:24.752Z,13.7
2023-02-09T20:52:18.987Z,10.3
2023-02-09T20:57:26.491Z,10.6
2023-02-09T21:02:56.993Z,14.6
2023-02-09T21:07:39.286Z,12.1
2023-02-09T21:12:45.860Z,9.9
2023-02-09T21:17:52.216Z,15.4
2023-02-09T21:22:58.605Z,0.2
2023-02-09T21:28:05.122Z,15.4
2023-02-09T21:33:11.618Z,16.2
2023-02-09T21:38:42.166Z,13.7
2023-02-09T21:43:48.523Z,12.0
2023-02-09T21:48:50.886Z,12.1
2023-02-09T21:53:37.279Z,14.4
2023-02-09T21:58:43.749Z,13.2
2023-02-09T22:03:50.495Z,12.0
2023-02-09T22:08:56.575Z,10.0
2023-02-09T22:14:23.038Z,16.1
2023-02-09T22:19:29.390Z,16.1
2023-02-09T22:24:19.769Z,12.9
2023-02-09T22:29:22.135Z,10.9
2023-02-09T22:34:28.662Z,13.4
2023-02-09T22:39:59.144Z,12.3
2023-02-09T22:44:41.461Z,12.3
2023-02-09T22:49:47.869Z,11.1
2023-02-09T22:54:54.219Z,13.9
2023-02-09T23:00:00.645Z,15.4
2023-02-09T23:05:31.070Z,13.0
2023-02-09T23:10:13.528Z,12.4
2023-02-09T23:15:19.962Z,14.2
2023-02-09T23:20:26.336Z,12.5
2023-02-09T23:25:32.725Z,14.0
2023-02-09T23:30:39.087Z,12.5
2023-02-09T23:35:45.673Z,16.7
2023-02-09T23:41:11.943Z,13.4
2023-02-09T23:45:58.454Z,13.4
2023-02-09T23:51:04.892Z,14.6
